sensor_id;sensor_type;location;lat;lon;timestamp;P1;durP1;ratioP1;P2;durP2;ratioP2
45476;SDS011;31958;51.756;-2.556;2023-04-25T00:00:39;15.45;;;4.35;;
45476;SDS011;31958;51.756;-2.556;2023-04-25T00:03:04;12.75;;;3.95;;
45476;SDS011;31958;51.756;-2.556;2023-04-25T00:05:31;21.15;;;4.22;;
45476;SDS011;31958;51.756;-2.556;2023-04-25T00:08:10;21.90;;;4.70;;
45476;SDS011;31958;51.756;-2.556;2023-04-25T00:10:36;33.08;;;5.10;;
45476;SDS011;31958;51.756;-2.556;2023-04-25T00:13:01;10.90;;;4.28;;
45476;SDS011;31958;51.756;-2.556;2023-04-25T00:15:40;13.73;;;4.47;;
45476;SDS011;31958;51.756;-2.556;2023-04-25T00:18:06;19.85;;;5.13;;
45476;SDS011;31958;51.756;-2.556;2023-04-25T00:20:32;17.33;;;3.88;;
45476;SDS011;31958;51.756;-2.556;2023-04-25T00:23:12;18.83;;;4.38;;
45476;SDS011;31958;51.756;-2.556;2023-04-25T00:25:43;17.95;;;4.35;;
45476;SDS011;31958;51.756;-2.556;2023-04-25T00:28:22;17.55;;;4.63;;
45476;SDS011;31958;51.756;-2.556;2023-04-25T00:30:47;11.82;;;4.15;;
45476;SDS011;31958;51.756;-2.556;2023-04-25T00:33:13;16.63;;;4.38;;
45476;SDS011;31958;51.756;-2.556;2023-04-25T00:35:51;13.23;;;4.57;;
45476;SDS011;31958;51.756;-2.556;2023-04-25T00:38:16;11.38;;;3.70;;
45476;SDS011;31958;51.756;-2.556;2023-04-25T00:40:42;15.55;;;3.90;;
45476;SDS011;31958;51.756;-2.556;2023-04-25T00:43:20;15.13;;;3.88;;
45476;SDS011;31958;51.756;-2.556;2023-04-25T00:45:46;11.45;;;3.83;;
45476;SDS011;31958;51.756;-2.556;2023-04-25T00:48:13;14.57;;;3.65;;
45476;SDS011;31958;51.756;-2.556;2023-04-25T00:50:53;16.92;;;4.90;;
45476;SDS011;31958;51.756;-2.556;2023-04-25T00:53:20;61.50;;;6.07;;
45476;SDS011;31958;51.756;-2.556;2023-04-25T00:55:59;21.85;;;4.35;;
45476;SDS011;31958;51.756;-2.556;2023-04-25T00:58:24;17.45;;;4.00;;
45476;SDS011;31958;51.756;-2.556;2023-04-25T01:00:50;19.17;;;4.07;;
45476;SDS011;31958;51.756;-2.556;2023-04-25T01:03:30;12.98;;;4.00;;
45476;SDS011;31958;51.756;-2.556;2023-04-25T01:05:57;21.80;;;4.57;;
45476;SDS011;31958;51.756;-2.556;2023-04-25T01:08:39;15.90;;;3.78;;
45476;SDS011;31958;51.756;-2.556;2023-04-25T01:11:05;19.27;;;4.18;;
45476;SDS011;31958;51.756;-2.556;2023-04-25T01:13:44;12.90;;;3.50;;
45476;SDS011;31958;51.756;-2.556;2023-04-25T01:16:09;17.67;;;3.97;;
45476;SDS011;31958;51.756;-2.556;2023-04-25T01:18:36;14.93;;;3.75;;
45476;SDS011;31958;51.756;-2.556;2023-04-25T01:21:15;9.88;;;3.53;;
45476;SDS011;31958;51.756;-2.556;2023-04-25T01:23:41;10.90;;;3.25;;
45476;SDS011;31958;51.756;-2.556;2023-04-25T01:26:10;18.42;;;3.55;;
45476;SDS011;31958;51.756;-2.556;2023-04-25T01:28:49;17.45;;;3.63;;
45476;SDS011;31958;51.756;-2.556;2023-04-25T01:31:15;22.85;;;3.78;;
45476;SDS011;31958;51.756;-2.556;2023-04-25T01:33:41;9.70;;;3.45;;
45476;SDS011;31958;51.756;-2.556;2023-04-25T01:36:19;28.20;;;3.55;;
45476;SDS011;31958;51.756;-2.556;2023-04-25T01:38:45;15.00;;;3.30;;
45476;SDS011;31958;51.756;-2.556;2023-04-25T01:41:12;17.90;;;3.42;;
45476;SDS011;31958;51.756;-2.556;2023-04-25T01:43:51;30.05;;;3.95;;
45476;SDS011;31958;51.756;-2.556;2023-04-25T01:46:16;25.42;;;3.97;;
45476;SDS011;31958;51.756;-2.556;2023-04-25T01:48:42;14.85;;;3.65;;
45476;SDS011;31958;51.756;-2.556;2023-04-25T01:51:20;15.23;;;3.70;;
45476;SDS011;31958;51.756;-2.556;2023-04-25T01:53:46;9.18;;;2.97;;
45476;SDS011;31958;51.756;-2.556;2023-04-25T01:56:11;12.57;;;2.85;;
45476;SDS011;31958;51.756;-2.556;2023-04-25T01:58:50;15.48;;;3.60;;
45476;SDS011;31958;51.756;-2.556;2023-04-25T02:01:16;14.43;;;3.20;;
45476;SDS011;31958;51.756;-2.556;2023-04-25T02:03:41;20.98;;;3.47;;
45476;SDS011;31958;51.756;-2.556;2023-04-25T02:06:20;13.18;;;2.88;;
45476;SDS011;31958;51.756;-2.556;2023-04-25T02:08:45;17.27;;;3.40;;
45476;SDS011;31958;51.756;-2.556;2023-04-25T02:11:11;13.95;;;3.38;;
45476;SDS011;31958;51.756;-2.556;2023-04-25T02:13:50;21.85;;;3.33;;
45476;SDS011;31958;51.756;-2.556;2023-04-25T02:16:15;21.40;;;3.78;;
45476;SDS011;31958;51.756;-2.556;2023-04-25T02:18:41;20.88;;;3.90;;
45476;SDS011;31958;51.756;-2.556;2023-04-25T02:21:19;16.75;;;3.38;;
45476;SDS011;31958;51.756;-2.556;2023-04-25T02:23:44;22.40;;;3.60;;
45476;SDS011;31958;51.756;-2.556;2023-04-25T02:26:13;9.40;;;3.80;;
45476;SDS011;31958;51.756;-2.556;2023-04-25T02:28:52;15.48;;;3.58;;
45476;SDS011;31958;51.756;-2.556;2023-04-25T02:31:17;18.80;;;3.40;;
45476;SDS011;31958;51.756;-2.556;2023-04-25T02:33:43;16.00;;;2.72;;
45476;SDS011;31958;51.756;-2.556;2023-04-25T02:36:22;24.55;;;4.05;;
45476;SDS011;31958;51.756;-2.556;2023-04-25T02:38:48;9.25;;;3.08;;
45476;SDS011;31958;51.756;-2.556;2023-04-25T02:41:14;16.55;;;2.90;;
45476;SDS011;31958;51.756;-2.556;2023-04-25T02:43:53;11.80;;;2.80;;
45476;SDS011;31958;51.756;-2.556;2023-04-25T02:46:18;21.35;;;2.90;;
45476;SDS011;31958;51.756;-2.556;2023-04-25T02:48:44;16.52;;;2.90;;
45476;SDS011;31958;51.756;-2.556;2023-04-25T02:51:22;8.65;;;3.05;;
45476;SDS011;31958;51.756;-2.556;2023-04-25T02:53:47;14.50;;;3.40;;
45476;SDS011;31958;51.756;-2.556;2023-04-25T02:56:13;23.20;;;3.22;;
45476;SDS011;31958;51.756;-2.556;2023-04-25T02:58:51;10.15;;;2.78;;
45476;SDS011;31958;51.756;-2.556;2023-04-25T03:01:17;13.65;;;2.90;;
45476;SDS011;31958;51.756;-2.556;2023-04-25T03:03:42;12.52;;;2.75;;
45476;SDS011;31958;51.756;-2.556;2023-04-25T03:06:21;16.27;;;3.25;;
45476;SDS011;31958;51.756;-2.556;2023-04-25T03:08:46;34.95;;;3.65;;
45476;SDS011;31958;51.756;-2.556;2023-04-25T03:11:12;8.27;;;2.83;;
45476;SDS011;31958;51.756;-2.556;2023-04-25T03:13:51;7.60;;;2.65;;
45476;SDS011;31958;51.756;-2.556;2023-04-25T03:16:16;9.80;;;2.50;;
45476;SDS011;31958;51.756;-2.556;2023-04-25T03:18:42;10.35;;;2.42;;
45476;SDS011;31958;51.756;-2.556;2023-04-25T03:21:22;10.30;;;3.15;;
45476;SDS011;31958;51.756;-2.556;2023-04-25T03:23:48;8.25;;;3.08;;
45476;SDS011;31958;51.756;-2.556;2023-04-25T03:26:13;6.97;;;3.00;;
45476;SDS011;31958;51.756;-2.556;2023-04-25T03:28:52;12.52;;;2.72;;
45476;SDS011;31958;51.756;-2.556;2023-04-25T03:31:17;13.07;;;2.88;;
45476;SDS011;31958;51.756;-2.556;2023-04-25T03:33:43;7.38;;;2.70;;
45476;SDS011;31958;51.756;-2.556;2023-04-25T03:36:21;10.15;;;3.08;;
45476;SDS011;31958;51.756;-2.556;2023-04-25T03:38:46;14.35;;;2.53;;
45476;SDS011;31958;51.756;-2.556;2023-04-25T03:41:13;7.20;;;2.45;;
45476;SDS011;31958;51.756;-2.556;2023-04-25T03:43:52;12.52;;;3.42;;
45476;SDS011;31958;51.756;-2.556;2023-04-25T03:46:17;13.00;;;3.22;;
45476;SDS011;31958;51.756;-2.556;2023-04-25T03:48:43;14.43;;;3.10;;
45476;SDS011;31958;51.756;-2.556;2023-04-25T03:51:21;6.53;;;2.70;;
45476;SDS011;31958;51.756;-2.556;2023-04-25T03:53:47;16.45;;;2.60;;
45476;SDS011;31958;51.756;-2.556;2023-04-25T03:56:12;12.77;;;2.83;;
45476;SDS011;31958;51.756;-2.556;2023-04-25T03:58:51;18.17;;;2.58;;
45476;SDS011;31958;51.756;-2.556;2023-04-25T04:01:16;14.77;;;2.85;;
45476;SDS011;31958;51.756;-2.556;2023-04-25T04:03:42;12.07;;;3.08;;
45476;SDS011;31958;51.756;-2.556;2023-04-25T04:06:20;9.88;;;2.30;;
45476;SDS011;31958;51.756;-2.556;2023-04-25T04:08:46;9.65;;;2.63;;
45476;SDS011;31958;51.756;-2.556;2023-04-25T04:11:12;8.30;;;1.92;;
45476;SDS011;31958;51.756;-2.556;2023-04-25T04:13:50;11.40;;;2.50;;
45476;SDS011;31958;51.756;-2.556;2023-04-25T04:16:15;11.50;;;2.83;;
45476;SDS011;31958;51.756;-2.556;2023-04-25T04:18:41;8.77;;;2.40;;
45476;SDS011;31958;51.756;-2.556;2023-04-25T04:21:19;6.90;;;2.45;;
45476;SDS011;31958;51.756;-2.556;2023-04-25T04:23:44;7.65;;;2.65;;
45476;SDS011;31958;51.756;-2.556;2023-04-25T04:26:11;10.70;;;2.72;;
45476;SDS011;31958;51.756;-2.556;2023-04-25T04:28:50;9.48;;;2.20;;
45476;SDS011;31958;51.756;-2.556;2023-04-25T04:31:16;3.42;;;1.90;;
45476;SDS011;31958;51.756;-2.556;2023-04-25T04:33:44;13.82;;;2.20;;
45476;SDS011;31958;51.756;-2.556;2023-04-25T04:36:23;13.73;;;2.50;;
45476;SDS011;31958;51.756;-2.556;2023-04-25T04:38:49;17.80;;;2.78;;
45476;SDS011;31958;51.756;-2.556;2023-04-25T04:41:14;8.30;;;2.15;;
45476;SDS011;31958;51.756;-2.556;2023-04-25T04:43:53;10.18;;;2.63;;
45476;SDS011;31958;51.756;-2.556;2023-04-25T04:46:20;12.18;;;2.58;;
45476;SDS011;31958;51.756;-2.556;2023-04-25T04:48:46;18.88;;;2.63;;
45476;SDS011;31958;51.756;-2.556;2023-04-25T04:51:25;10.30;;;2.55;;
45476;SDS011;31958;51.756;-2.556;2023-04-25T04:53:51;4.50;;;2.08;;
45476;SDS011;31958;51.756;-2.556;2023-04-25T04:56:16;9.85;;;2.58;;
45476;SDS011;31958;51.756;-2.556;2023-04-25T04:58:59;13.82;;;2.20;;
45476;SDS011;31958;51.756;-2.556;2023-04-25T05:01:25;9.65;;;1.95;;
45476;SDS011;31958;51.756;-2.556;2023-04-25T05:04:04;11.02;;;2.25;;
45476;SDS011;31958;51.756;-2.556;2023-04-25T05:06:30;59.00;;;4.20;;
45476;SDS011;31958;51.756;-2.556;2023-04-25T05:08:56;28.45;;;2.92;;
45476;SDS011;31958;51.756;-2.556;2023-04-25T05:11:35;54.50;;;3.70;;
45476;SDS011;31958;51.756;-2.556;2023-04-25T05:14:00;2.97;;;1.73;;
45476;SDS011;31958;51.756;-2.556;2023-04-25T05:16:26;8.48;;;2.08;;
45476;SDS011;31958;51.756;-2.556;2023-04-25T05:19:04;6.28;;;2.10;;
45476;SDS011;31958;51.756;-2.556;2023-04-25T05:21:29;7.38;;;1.88;;
45476;SDS011;31958;51.756;-2.556;2023-04-25T05:23:56;4.53;;;1.90;;
45476;SDS011;31958;51.756;-2.556;2023-04-25T05:26:34;16.05;;;2.60;;
45476;SDS011;31958;51.756;-2.556;2023-04-25T05:28:59;5.50;;;1.65;;
45476;SDS011;31958;51.756;-2.556;2023-04-25T05:31:25;6.65;;;2.08;;
45476;SDS011;31958;51.756;-2.556;2023-04-25T05:34:04;4.20;;;2.03;;
45476;SDS011;31958;51.756;-2.556;2023-04-25T05:36:29;8.68;;;2.35;;
45476;SDS011;31958;51.756;-2.556;2023-04-25T05:38:57;17.35;;;2.83;;
45476;SDS011;31958;51.756;-2.556;2023-04-25T05:41:37;12.68;;;2.17;;
45476;SDS011;31958;51.756;-2.556;2023-04-25T05:44:03;16.13;;;2.42;;
45476;SDS011;31958;51.756;-2.556;2023-04-25T05:46:28;13.88;;;2.20;;
45476;SDS011;31958;51.756;-2.556;2023-04-25T05:49:07;4.07;;;1.88;;
45476;SDS011;31958;51.756;-2.556;2023-04-25T05:51:32;10.00;;;2.28;;
45476;SDS011;31958;51.756;-2.556;2023-04-25T05:53:58;16.67;;;2.50;;
45476;SDS011;31958;51.756;-2.556;2023-04-25T05:56:37;42.25;;;4.00;;
45476;SDS011;31958;51.756;-2.556;2023-04-25T05:59:02;59.78;;;3.30;;
45476;SDS011;31958;51.756;-2.556;2023-04-25T06:01:28;105.38;;;5.85;;
45476;SDS011;31958;51.756;-2.556;2023-04-25T06:04:07;157.48;;;7.20;;
45476;SDS011;31958;51.756;-2.556;2023-04-25T06:06:32;997.85;;;52.28;;
45476;SDS011;31958;51.756;-2.556;2023-04-25T06:08:58;647.03;;;30.55;;
45476;SDS011;31958;51.756;-2.556;2023-04-25T06:11:36;734.20;;;37.17;;
45476;SDS011;31958;51.756;-2.556;2023-04-25T06:14:01;901.03;;;42.30;;
45476;SDS011;31958;51.756;-2.556;2023-04-25T06:16:27;563.28;;;27.00;;
45476;SDS011;31958;51.756;-2.556;2023-04-25T06:19:06;7.20;;;2.17;;
45476;SDS011;31958;51.756;-2.556;2023-04-25T06:21:31;107.03;;;5.22;;
45476;SDS011;31958;51.756;-2.556;2023-04-25T06:23:57;10.60;;;2.47;;
45476;SDS011;31958;51.756;-2.556;2023-04-25T06:26:35;21.25;;;2.55;;
45476;SDS011;31958;51.756;-2.556;2023-04-25T06:29:00;5.85;;;1.83;;
45476;SDS011;31958;51.756;-2.556;2023-04-25T06:31:26;4.75;;;1.95;;
45476;SDS011;31958;51.756;-2.556;2023-04-25T06:34:05;3.85;;;1.90;;
45476;SDS011;31958;51.756;-2.556;2023-04-25T06:36:30;4.90;;;1.90;;
45476;SDS011;31958;51.756;-2.556;2023-04-25T06:38:56;6.00;;;2.00;;
45476;SDS011;31958;51.756;-2.556;2023-04-25T06:41:35;5.72;;;2.00;;
45476;SDS011;31958;51.756;-2.556;2023-04-25T06:44:01;4.53;;;1.90;;
45476;SDS011;31958;51.756;-2.556;2023-04-25T06:46:26;4.72;;;2.10;;
45476;SDS011;31958;51.756;-2.556;2023-04-25T06:49:05;5.00;;;1.90;;
45476;SDS011;31958;51.756;-2.556;2023-04-25T06:51:30;4.80;;;1.85;;
45476;SDS011;31958;51.756;-2.556;2023-04-25T06:53:56;5.47;;;2.03;;
45476;SDS011;31958;51.756;-2.556;2023-04-25T06:56:36;4.85;;;1.90;;
45476;SDS011;31958;51.756;-2.556;2023-04-25T06:59:01;5.50;;;2.13;;
45476;SDS011;31958;51.756;-2.556;2023-04-25T07:01:27;5.25;;;2.05;;
45476;SDS011;31958;51.756;-2.556;2023-04-25T07:04:05;5.03;;;2.20;;
45476;SDS011;31958;51.756;-2.556;2023-04-25T07:06:31;7.87;;;2.50;;
45476;SDS011;31958;51.756;-2.556;2023-04-25T07:08:56;5.20;;;2.20;;
45476;SDS011;31958;51.756;-2.556;2023-04-25T07:11:35;6.45;;;2.20;;
45476;SDS011;31958;51.756;-2.556;2023-04-25T07:14:01;8.13;;;2.75;;
45476;SDS011;31958;51.756;-2.556;2023-04-25T07:16:27;7.13;;;2.33;;
45476;SDS011;31958;51.756;-2.556;2023-04-25T07:19:05;8.85;;;2.42;;
45476;SDS011;31958;51.756;-2.556;2023-04-25T07:21:30;5.03;;;2.05;;
45476;SDS011;31958;51.756;-2.556;2023-04-25T07:23:56;4.55;;;1.90;;
45476;SDS011;31958;51.756;-2.556;2023-04-25T07:26:35;7.72;;;2.20;;
45476;SDS011;31958;51.756;-2.556;2023-04-25T07:29:00;6.60;;;2.20;;
45476;SDS011;31958;51.756;-2.556;2023-04-25T07:31:26;5.20;;;1.90;;
45476;SDS011;31958;51.756;-2.556;2023-04-25T07:34:05;4.82;;;1.90;;
45476;SDS011;31958;51.756;-2.556;2023-04-25T07:36:31;6.50;;;1.90;;
45476;SDS011;31958;51.756;-2.556;2023-04-25T07:38:56;7.40;;;1.95;;
45476;SDS011;31958;51.756;-2.556;2023-04-25T07:41:35;10.20;;;2.28;;
45476;SDS011;31958;51.756;-2.556;2023-04-25T07:44:00;9.27;;;2.10;;
45476;SDS011;31958;51.756;-2.556;2023-04-25T07:46:26;5.63;;;1.92;;
45476;SDS011;31958;51.756;-2.556;2023-04-25T07:49:04;7.22;;;2.08;;
45476;SDS011;31958;51.756;-2.556;2023-04-25T07:51:30;6.28;;;1.77;;
45476;SDS011;31958;51.756;-2.556;2023-04-25T07:53:55;8.82;;;2.05;;
45476;SDS011;31958;51.756;-2.556;2023-04-25T07:56:34;6.65;;;1.60;;
45476;SDS011;31958;51.756;-2.556;2023-04-25T07:59:00;5.85;;;1.75;;
45476;SDS011;31958;51.756;-2.556;2023-04-25T08:01:25;4.53;;;1.63;;
45476;SDS011;31958;51.756;-2.556;2023-04-25T08:04:04;5.10;;;1.50;;
45476;SDS011;31958;51.756;-2.556;2023-04-25T08:06:30;6.20;;;1.30;;
45476;SDS011;31958;51.756;-2.556;2023-04-25T08:08:56;7.25;;;1.75;;
45476;SDS011;31958;51.756;-2.556;2023-04-25T08:11:35;6.22;;;1.88;;
45476;SDS011;31958;51.756;-2.556;2023-04-25T08:14:01;6.72;;;1.70;;
45476;SDS011;31958;51.756;-2.556;2023-04-25T08:16:27;7.78;;;1.60;;
45476;SDS011;31958;51.756;-2.556;2023-04-25T08:19:05;8.35;;;1.65;;
45476;SDS011;31958;51.756;-2.556;2023-04-25T08:21:31;8.60;;;1.83;;
45476;SDS011;31958;51.756;-2.556;2023-04-25T08:23:56;6.72;;;1.73;;
45476;SDS011;31958;51.756;-2.556;2023-04-25T08:26:35;8.13;;;1.92;;
45476;SDS011;31958;51.756;-2.556;2023-04-25T08:29:02;7.40;;;1.70;;
45476;SDS011;31958;51.756;-2.556;2023-04-25T08:31:27;7.82;;;1.63;;
45476;SDS011;31958;51.756;-2.556;2023-04-25T08:34:06;7.78;;;2.20;;
45476;SDS011;31958;51.756;-2.556;2023-04-25T08:36:32;7.72;;;1.88;;
45476;SDS011;31958;51.756;-2.556;2023-04-25T08:39:05;6.60;;;1.80;;
45476;SDS011;31958;51.756;-2.556;2023-04-25T08:41:44;8.55;;;1.92;;
45476;SDS011;31958;51.756;-2.556;2023-04-25T08:44:10;5.43;;;2.00;;
45476;SDS011;31958;51.756;-2.556;2023-04-25T08:46:37;6.55;;;1.67;;
45476;SDS011;31958;51.756;-2.556;2023-04-25T08:49:17;7.72;;;1.70;;
45476;SDS011;31958;51.756;-2.556;2023-04-25T08:51:44;8.10;;;1.90;;
45476;SDS011;31958;51.756;-2.556;2023-04-25T08:54:24;6.75;;;1.90;;
45476;SDS011;31958;51.756;-2.556;2023-04-25T08:56:54;6.32;;;1.70;;
45476;SDS011;31958;51.756;-2.556;2023-04-25T08:59:35;5.50;;;1.70;;
45476;SDS011;31958;51.756;-2.556;2023-04-25T09:02:03;5.65;;;1.40;;
45476;SDS011;31958;51.756;-2.556;2023-04-25T09:04:45;10.15;;;1.92;;
45476;SDS011;31958;51.756;-2.556;2023-04-25T09:07:11;9.45;;;1.70;;
45476;SDS011;31958;51.756;-2.556;2023-04-25T09:09:52;6.35;;;2.00;;
45476;SDS011;31958;51.756;-2.556;2023-04-25T09:12:18;5.72;;;2.33;;
45476;SDS011;31958;51.756;-2.556;2023-04-25T09:17:41;7.00;;;1.80;;
45476;SDS011;31958;51.756;-2.556;2023-04-25T09:20:13;7.47;;;1.70;;
45476;SDS011;31958;51.756;-2.556;2023-04-25T09:22:40;6.40;;;2.08;;
45476;SDS011;31958;51.756;-2.556;2023-04-25T09:25:12;6.78;;;1.85;;
45476;SDS011;31958;51.756;-2.556;2023-04-25T09:27:51;7.40;;;1.70;;
45476;SDS011;31958;51.756;-2.556;2023-04-25T09:30:30;5.00;;;1.67;;
45476;SDS011;31958;51.756;-2.556;2023-04-25T09:33:06;5.93;;;1.60;;
45476;SDS011;31958;51.756;-2.556;2023-04-25T09:35:40;3.95;;;1.35;;
45476;SDS011;31958;51.756;-2.556;2023-04-25T09:38:20;5.03;;;1.50;;
45476;SDS011;31958;51.756;-2.556;2023-04-25T09:40:52;8.15;;;1.70;;
45476;SDS011;31958;51.756;-2.556;2023-04-25T09:43:25;8.70;;;1.95;;
45476;SDS011;31958;51.756;-2.556;2023-04-25T09:45:52;6.40;;;1.77;;
45476;SDS011;31958;51.756;-2.556;2023-04-25T09:48:32;6.50;;;1.70;;
45476;SDS011;31958;51.756;-2.556;2023-04-25T09:51:09;5.40;;;1.33;;
45476;SDS011;31958;51.756;-2.556;2023-04-25T09:53:48;4.93;;;1.60;;
45476;SDS011;31958;51.756;-2.556;2023-04-25T09:56:23;5.53;;;1.50;;
45476;SDS011;31958;51.756;-2.556;2023-04-25T09:58:56;3.92;;;1.63;;
45476;SDS011;31958;51.756;-2.556;2023-04-25T10:01:22;8.63;;;2.40;;
45476;SDS011;31958;51.756;-2.556;2023-04-25T10:03:54;5.30;;;1.60;;
45476;SDS011;31958;51.756;-2.556;2023-04-25T10:06:28;6.57;;;1.30;;
45476;SDS011;31958;51.756;-2.556;2023-04-25T10:08:53;5.43;;;1.17;;
45476;SDS011;31958;51.756;-2.556;2023-04-25T10:11:27;5.20;;;1.40;;
45476;SDS011;31958;51.756;-2.556;2023-04-25T10:13:59;5.82;;;1.70;;
45476;SDS011;31958;51.756;-2.556;2023-04-25T10:16:25;8.50;;;1.33;;
45476;SDS011;31958;51.756;-2.556;2023-04-25T10:18:57;3.88;;;1.55;;
45476;SDS011;31958;51.756;-2.556;2023-04-25T10:21:29;4.45;;;1.33;;
45476;SDS011;31958;51.756;-2.556;2023-04-25T10:23:56;4.68;;;1.20;;
45476;SDS011;31958;51.756;-2.556;2023-04-25T10:26:28;4.13;;;1.42;;
45476;SDS011;31958;51.756;-2.556;2023-04-25T10:29:01;3.78;;;1.15;;
45476;SDS011;31958;51.756;-2.556;2023-04-25T10:31:28;3.97;;;1.40;;
45476;SDS011;31958;51.756;-2.556;2023-04-25T10:34:08;6.20;;;1.10;;
45476;SDS011;31958;51.756;-2.556;2023-04-25T10:36:34;5.60;;;1.25;;
45476;SDS011;31958;51.756;-2.556;2023-04-25T10:39:08;2.47;;;0.98;;
45476;SDS011;31958;51.756;-2.556;2023-04-25T10:41:47;4.03;;;1.10;;
45476;SDS011;31958;51.756;-2.556;2023-04-25T10:44:31;4.07;;;1.17;;
45476;SDS011;31958;51.756;-2.556;2023-04-25T10:47:07;4.40;;;1.25;;
45476;SDS011;31958;51.756;-2.556;2023-04-25T10:49:43;4.30;;;1.10;;
45476;SDS011;31958;51.756;-2.556;2023-04-25T10:52:16;6.13;;;1.30;;
45476;SDS011;31958;51.756;-2.556;2023-04-25T10:54:54;4.20;;;1.40;;
45476;SDS011;31958;51.756;-2.556;2023-04-25T11:00:11;3.03;;;1.15;;
45476;SDS011;31958;51.756;-2.556;2023-04-25T11:02:48;5.22;;;1.20;;
45476;SDS011;31958;51.756;-2.556;2023-04-25T11:05:31;4.15;;;1.33;;
45476;SDS011;31958;51.756;-2.556;2023-04-25T11:08:10;6.22;;;1.20;;
45476;SDS011;31958;51.756;-2.556;2023-04-25T11:10:42;4.38;;;1.60;;
45476;SDS011;31958;51.756;-2.556;2023-04-25T11:13:14;3.60;;;1.00;;
45476;SDS011;31958;51.756;-2.556;2023-04-25T11:15:40;5.43;;;1.10;;
45476;SDS011;31958;51.756;-2.556;2023-04-25T11:18:15;4.80;;;1.42;;
45476;SDS011;31958;51.756;-2.556;2023-04-25T11:20:47;5.70;;;1.75;;
45476;SDS011;31958;51.756;-2.556;2023-04-25T11:23:19;3.40;;;1.10;;
45476;SDS011;31958;51.756;-2.556;2023-04-25T11:25:45;4.32;;;1.42;;
45476;SDS011;31958;51.756;-2.556;2023-04-25T11:28:20;1.55;;;1.00;;
45476;SDS011;31958;51.756;-2.556;2023-04-25T11:30:52;8.80;;;1.27;;
45476;SDS011;31958;51.756;-2.556;2023-04-25T11:33:25;6.57;;;1.40;;
45476;SDS011;31958;51.756;-2.556;2023-04-25T11:35:58;3.25;;;1.20;;
45476;SDS011;31958;51.756;-2.556;2023-04-25T11:38:24;4.07;;;1.15;;
45476;SDS011;31958;51.756;-2.556;2023-04-25T11:40:56;5.10;;;1.10;;
45476;SDS011;31958;51.756;-2.556;2023-04-25T11:43:28;5.82;;;1.10;;
45476;SDS011;31958;51.756;-2.556;2023-04-25T11:45:54;1.70;;;1.05;;
45476;SDS011;31958;51.756;-2.556;2023-04-25T11:48:25;2.25;;;0.90;;
45476;SDS011;31958;51.756;-2.556;2023-04-25T11:50:57;3.55;;;1.08;;
45476;SDS011;31958;51.756;-2.556;2023-04-25T11:53:25;6.88;;;1.15;;
45476;SDS011;31958;51.756;-2.556;2023-04-25T11:55:56;4.32;;;1.05;;
45476;SDS011;31958;51.756;-2.556;2023-04-25T11:58:28;3.13;;;0.95;;
45476;SDS011;31958;51.756;-2.556;2023-04-25T12:00:54;2.92;;;0.98;;
45476;SDS011;31958;51.756;-2.556;2023-04-25T12:03:29;5.32;;;1.08;;
45476;SDS011;31958;51.756;-2.556;2023-04-25T12:06:10;3.65;;;1.45;;
45476;SDS011;31958;51.756;-2.556;2023-04-25T12:08:59;1.77;;;0.70;;
45476;SDS011;31958;51.756;-2.556;2023-04-25T12:11:25;7.88;;;2.03;;
45476;SDS011;31958;51.756;-2.556;2023-04-25T12:14:03;3.47;;;1.30;;
45476;SDS011;31958;51.756;-2.556;2023-04-25T12:16:29;7.00;;;1.02;;
45476;SDS011;31958;51.756;-2.556;2023-04-25T12:19:19;4.90;;;1.00;;
45476;SDS011;31958;51.756;-2.556;2023-04-25T12:21:45;3.67;;;1.10;;
45476;SDS011;31958;51.756;-2.556;2023-04-25T12:24:11;3.10;;;1.05;;
45476;SDS011;31958;51.756;-2.556;2023-04-25T12:27:04;3.17;;;1.30;;
45476;SDS011;31958;51.756;-2.556;2023-04-25T12:29:31;3.78;;;1.10;;
45476;SDS011;31958;51.756;-2.556;2023-04-25T12:32:10;3.10;;;1.35;;
45476;SDS011;31958;51.756;-2.556;2023-04-25T12:34:35;3.35;;;1.10;;
45476;SDS011;31958;51.756;-2.556;2023-04-25T12:37:01;4.55;;;1.58;;
45476;SDS011;31958;51.756;-2.556;2023-04-25T12:39:39;7.82;;;1.30;;
45476;SDS011;31958;51.756;-2.556;2023-04-25T12:42:05;4.63;;;1.10;;
45476;SDS011;31958;51.756;-2.556;2023-04-25T12:44:32;1.55;;;0.75;;
45476;SDS011;31958;51.756;-2.556;2023-04-25T12:47:11;4.57;;;1.15;;
45476;SDS011;31958;51.756;-2.556;2023-04-25T12:49:37;1.55;;;0.80;;
45476;SDS011;31958;51.756;-2.556;2023-04-25T12:52:02;3.25;;;1.20;;
45476;SDS011;31958;51.756;-2.556;2023-04-25T12:54:41;2.85;;;0.82;;
45476;SDS011;31958;51.756;-2.556;2023-04-25T12:57:07;4.35;;;1.10;;
45476;SDS011;31958;51.756;-2.556;2023-04-25T12:59:32;2.75;;;1.25;;
45476;SDS011;31958;51.756;-2.556;2023-04-25T13:02:11;2.83;;;0.90;;
45476;SDS011;31958;51.756;-2.556;2023-04-25T13:04:37;1.70;;;0.95;;
45476;SDS011;31958;51.756;-2.556;2023-04-25T13:07:02;3.17;;;1.20;;
45476;SDS011;31958;51.756;-2.556;2023-04-25T13:09:41;5.07;;;1.48;;
45476;SDS011;31958;51.756;-2.556;2023-04-25T13:12:06;5.85;;;1.65;;
45476;SDS011;31958;51.756;-2.556;2023-04-25T13:14:32;1.42;;;0.68;;
45476;SDS011;31958;51.756;-2.556;2023-04-25T13:17:11;1.80;;;1.02;;
45476;SDS011;31958;51.756;-2.556;2023-04-25T13:19:37;4.18;;;1.30;;
45476;SDS011;31958;51.756;-2.556;2023-04-25T13:22:03;3.05;;;1.25;;
45476;SDS011;31958;51.756;-2.556;2023-04-25T13:24:42;4.43;;;1.35;;
45476;SDS011;31958;51.756;-2.556;2023-04-25T13:27:08;3.78;;;1.10;;
45476;SDS011;31958;51.756;-2.556;2023-04-25T13:29:33;5.13;;;1.63;;
45476;SDS011;31958;51.756;-2.556;2023-04-25T13:32:12;5.15;;;1.30;;
45476;SDS011;31958;51.756;-2.556;2023-04-25T13:34:38;6.53;;;1.60;;
45476;SDS011;31958;51.756;-2.556;2023-04-25T13:37:03;5.10;;;1.10;;
45476;SDS011;31958;51.756;-2.556;2023-04-25T13:39:42;4.40;;;1.35;;
45476;SDS011;31958;51.756;-2.556;2023-04-25T13:42:08;3.33;;;1.40;;
45476;SDS011;31958;51.756;-2.556;2023-04-25T13:44:33;3.95;;;1.15;;
45476;SDS011;31958;51.756;-2.556;2023-04-25T13:47:11;6.38;;;1.33;;
45476;SDS011;31958;51.756;-2.556;2023-04-25T13:49:37;2.63;;;1.30;;
45476;SDS011;31958;51.756;-2.556;2023-04-25T13:52:02;3.28;;;1.20;;
45476;SDS011;31958;51.756;-2.556;2023-04-25T13:54:41;3.55;;;1.42;;
45476;SDS011;31958;51.756;-2.556;2023-04-25T13:57:07;3.30;;;1.40;;
45476;SDS011;31958;51.756;-2.556;2023-04-25T13:59:32;5.90;;;1.35;;
45476;SDS011;31958;51.756;-2.556;2023-04-25T14:02:12;4.75;;;1.50;;
45476;SDS011;31958;51.756;-2.556;2023-04-25T14:04:38;3.97;;;1.00;;
45476;SDS011;31958;51.756;-2.556;2023-04-25T14:07:03;5.45;;;1.52;;
45476;SDS011;31958;51.756;-2.556;2023-04-25T14:09:42;4.65;;;1.35;;
45476;SDS011;31958;51.756;-2.556;2023-04-25T14:12:08;4.85;;;1.30;;
45476;SDS011;31958;51.756;-2.556;2023-04-25T14:14:33;2.95;;;1.40;;
45476;SDS011;31958;51.756;-2.556;2023-04-25T14:17:12;8.68;;;1.35;;
45476;SDS011;31958;51.756;-2.556;2023-04-25T14:19:38;4.32;;;1.50;;
45476;SDS011;31958;51.756;-2.556;2023-04-25T14:22:08;5.07;;;1.83;;
45476;SDS011;31958;51.756;-2.556;2023-04-25T14:24:47;6.05;;;1.40;;
45476;SDS011;31958;51.756;-2.556;2023-04-25T14:27:13;2.90;;;1.13;;
45476;SDS011;31958;51.756;-2.556;2023-04-25T14:29:38;6.00;;;1.67;;
45476;SDS011;31958;51.756;-2.556;2023-04-25T14:32:16;4.60;;;1.45;;
45476;SDS011;31958;51.756;-2.556;2023-04-25T14:34:42;5.18;;;1.38;;
45476;SDS011;31958;51.756;-2.556;2023-04-25T14:37:07;6.32;;;1.50;;
45476;SDS011;31958;51.756;-2.556;2023-04-25T14:39:46;3.67;;;1.45;;
45476;SDS011;31958;51.756;-2.556;2023-04-25T14:42:12;6.85;;;1.38;;
45476;SDS011;31958;51.756;-2.556;2023-04-25T14:44:37;3.65;;;1.38;;
45476;SDS011;31958;51.756;-2.556;2023-04-25T14:47:16;5.32;;;1.25;;
45476;SDS011;31958;51.756;-2.556;2023-04-25T14:49:42;4.10;;;1.70;;
45476;SDS011;31958;51.756;-2.556;2023-04-25T14:52:07;5.18;;;1.42;;
45476;SDS011;31958;51.756;-2.556;2023-04-25T14:54:46;4.32;;;1.60;;